createdAt,value
2023-04-02T00:00:22.261Z,1.67
2023-04-02T00:03:24.686Z,2.10
2023-04-02T00:06:44.740Z,1.05
2023-04-02T00:09:47.335Z,1.90
2023-04-02T00:13:05.805Z,1.80
2023-04-02T00:16:13.186Z,1.77
2023-04-02T00:19:23.329Z,1.35
2023-04-02T00:22:29.498Z,0.85
2023-04-02T00:25:43.230Z,1.35
2023-04-02T00:28:45.465Z,1.15
2023-04-02T00:31:50.607Z,0.90
2023-04-02T00:34:54.378Z,1.45
2023-04-02T00:37:56.969Z,1.30
2023-04-02T00:41:03.027Z,1.70
2023-04-02T00:44:06.124Z,1.67
2023-04-02T00:47:17.189Z,1.17
2023-04-02T00:50:39.144Z,1.02
2023-04-02T00:53:44.598Z,1.23
2023-04-02T00:56:50.756Z,1.25
2023-04-02T00:59:55.682Z,1.23
2023-04-02T01:03:16.591Z,1.40
2023-04-02T01:06:20.593Z,1.05
2023-04-02T01:09:53.401Z,1.80
2023-04-02T01:13:08.911Z,0.80
2023-04-02T01:16:20.643Z,1.25
2023-04-02T01:19:32.185Z,1.23
2023-04-02T01:22:48.150Z,1.45
2023-04-02T01:25:53.366Z,1.10
2023-04-02T01:29:03.071Z,0.80
2023-04-02T01:32:15.616Z,2.00
2023-04-02T01:35:18.133Z,1.13
2023-04-02T01:38:29.287Z,0.90
2023-04-02T01:41:49.305Z,1.00
2023-04-02T01:44:54.212Z,1.00
2023-04-02T01:47:56.840Z,1.35
2023-04-02T01:51:01.002Z,1.07
2023-04-02T01:54:06.233Z,1.30
2023-04-02T01:57:09.299Z,2.15
2023-04-02T02:00:15.053Z,1.00
2023-04-02T02:03:20.766Z,3.13
2023-04-02T02:06:24.003Z,1.03
2023-04-02T02:09:31.022Z,1.38
2023-04-02T02:12:33.315Z,1.52
2023-04-02T02:15:39.076Z,1.30
2023-04-02T02:18:41.915Z,1.48
2023-04-02T02:21:56.931Z,1.20
2023-04-02T02:25:03.043Z,1.45
2023-04-02T02:28:23.692Z,1.38
2023-04-02T02:31:31.054Z,1.65
2023-04-02T02:34:39.723Z,1.35
2023-04-02T02:37:46.995Z,1.00
2023-04-02T02:40:56.652Z,1.38
2023-04-02T02:44:14.588Z,2.03
2023-04-02T02:47:22.481Z,1.70
2023-04-02T02:50:31.339Z,1.85
2023-04-02T02:53:46.867Z,2.50
2023-04-02T02:57:04.136Z,1.70
2023-04-02T03:00:09.768Z,1.40
2023-04-02T03:03:22.197Z,1.92
2023-04-02T03:06:28.787Z,2.42
2023-04-02T03:09:41.974Z,1.50
2023-04-02T03:13:08.520Z,1.52
2023-04-02T03:16:31.319Z,3.45
2023-04-02T03:19:51.342Z,2.97
2023-04-02T03:23:08.992Z,3.63
2023-04-02T03:26:19.202Z,2.00
2023-04-02T03:29:27.204Z,3.08
2023-04-02T03:32:38.763Z,2.20
2023-04-02T03:35:48.244Z,2.70
2023-04-02T03:38:57.041Z,2.25
2023-04-02T03:42:04.958Z,2.90
2023-04-02T03:45:21.380Z,2.95
2023-04-02T03:48:39.553Z,3.30
2023-04-02T03:52:10.591Z,2.40
2023-04-02T03:55:24.305Z,2.17
2023-04-02T03:58:51.771Z,2.37
2023-04-02T04:02:01.904Z,2.25
2023-04-02T04:05:06.915Z,3.97
2023-04-02T04:08:27.122Z,3.72
2023-04-02T04:11:35.761Z,2.60
2023-04-02T04:14:45.976Z,2.00
2023-04-02T04:17:57.840Z,2.20
2023-04-02T04:21:30.981Z,2.58
2023-04-02T04:24:45.604Z,2.50
2023-04-02T04:28:08.276Z,3.78
2023-04-02T04:31:34.038Z,2.60
2023-04-02T04:34:47.018Z,2.10
2023-04-02T04:38:03.881Z,3.55
2023-04-02T04:41:17.432Z,2.65
2023-04-02T04:44:25.385Z,2.95
2023-04-02T04:47:42.625Z,2.60
2023-04-02T04:50:50.690Z,3.75
2023-04-02T04:53:55.271Z,2.60
2023-04-02T04:57:04.054Z,2.60
2023-04-02T05:00:18.614Z,2.40
2023-04-02T05:03:55.590Z,3.33
2023-04-02T05:07:14.315Z,2.03
2023-04-02T05:10:26.550Z,5.03
2023-04-02T05:14:01.557Z,2.40
2023-04-02T05:17:04.472Z,2.15
2023-04-02T05:20:16.470Z,2.13
2023-04-02T05:23:48.274Z,2.33
2023-04-02T05:26:53.398Z,3.33
2023-04-02T05:30:23.206Z,2.17
2023-04-02T05:33:32.334Z,2.10
2023-04-02T05:36:38.552Z,1.50
2023-04-02T05:39:50.285Z,1.92
2023-04-02T05:42:55.716Z,1.90
2023-04-02T05:46:03.774Z,1.83
2023-04-02T05:49:14.095Z,1.55
2023-04-02T05:52:23.589Z,1.70
2023-04-02T05:55:43.256Z,1.90
2023-04-02T05:59:11.900Z,1.83
2023-04-02T06:02:39.670Z,2.10
2023-04-02T06:05:46.152Z,1.75
2023-04-02T06:08:57.775Z,2.20
2023-04-02T06:12:24.812Z,2.28
2023-04-02T06:15:30.044Z,1.40
2023-04-02T06:18:37.448Z,1.95
2023-04-02T06:21:45.783Z,1.20
2023-04-02T06:24:56.304Z,1.43
2023-04-02T06:28:01.726Z,1.80
2023-04-02T06:31:10.937Z,1.30
2023-04-02T06:34:22.463Z,1.90
2023-04-02T06:37:35.839Z,1.35
2023-04-02T06:40:58.931Z,2.27
2023-04-02T06:44:18.655Z,1.65
2023-04-02T06:47:38.672Z,2.33
2023-04-02T06:50:49.165Z,1.75
2023-04-02T06:54:16.139Z,1.65
2023-04-02T06:57:20.731Z,2.70
2023-04-02T07:00:33.898Z,1.70
2023-04-02T07:03:36.910Z,2.65
2023-04-02T07:06:51.266Z,1.88
2023-04-02T07:09:54.330Z,1.92
2023-04-02T07:12:56.647Z,2.53
2023-04-02T07:15:59.914Z,3.58
2023-04-02T07:19:04.177Z,1.65
2023-04-02T07:22:09.405Z,1.60
2023-04-02T07:25:15.988Z,2.05
2023-04-02T07:28:19.194Z,1.37
2023-04-02T07:31:25.951Z,2.40
2023-04-02T07:34:28.376Z,1.67
2023-04-02T07:37:31.396Z,1.70
2023-04-02T07:40:33.726Z,1.90
2023-04-02T07:43:36.243Z,2.10
2023-04-02T07:46:38.547Z,1.73
2023-04-02T07:49:40.952Z,1.50
2023-04-02T07:52:43.985Z,2.58
2023-04-02T07:55:46.255Z,1.90
2023-04-02T07:58:49.071Z,2.77
2023-04-02T08:01:55.183Z,2.85
2023-04-02T08:04:57.426Z,2.15
2023-04-02T08:07:59.705Z,2.15
2023-04-02T08:11:01.970Z,3.05
2023-04-02T08:14:04.511Z,2.13
2023-04-02T08:17:06.786Z,1.75
2023-04-02T08:20:16.292Z,3.15
2023-04-02T08:23:18.588Z,2.20
2023-04-02T08:26:21.129Z,2.38
2023-04-02T08:29:23.548Z,2.47
2023-04-02T08:32:29.021Z,2.40
2023-04-02T08:35:31.398Z,2.10
2023-04-02T08:38:33.762Z,2.17
2023-04-02T08:42:06.587Z,4.38
2023-04-02T08:45:25.410Z,2.10
2023-04-02T08:48:44.236Z,3.08
2023-04-02T08:51:47.482Z,2.60
2023-04-02T08:54:50.491Z,2.35
2023-04-02T08:58:07.468Z,2.47
2023-04-02T09:01:31.688Z,4.00
2023-04-02T09:04:34.657Z,2.30
2023-04-02T09:07:37.039Z,2.50
2023-04-02T09:10:45.573Z,2.40
2023-04-02T09:13:55.529Z,2.35
2023-04-02T09:17:03.950Z,2.53
2023-04-02T09:20:26.516Z,2.53
2023-04-02T09:23:29.242Z,3.28
2023-04-02T09:26:34.090Z,3.45
2023-04-02T09:29:43.421Z,3.20
2023-04-02T09:32:53.427Z,3.97
2023-04-02T09:35:57.898Z,2.63
2023-04-02T09:39:06.878Z,2.80
2023-04-02T09:42:35.149Z,4.85
2023-04-02T09:45:38.046Z,4.97
2023-04-02T09:48:58.484Z,3.17
2023-04-02T09:52:29.672Z,3.00
2023-04-02T09:55:32.229Z,2.50
2023-04-02T09:58:34.503Z,2.83
2023-04-02T10:01:39.650Z,2.72
2023-04-02T10:04:48.267Z,3.87
2023-04-02T10:07:53.334Z,3.22
2023-04-02T10:10:59.602Z,4.53
2023-04-02T10:14:38.086Z,3.65
2023-04-02T10:17:41.016Z,5.72
2023-04-02T10:20:51.276Z,3.60
2023-04-02T10:23:55.559Z,3.20
2023-04-02T10:27:22.740Z,3.25
2023-04-02T10:30:32.050Z,3.40
2023-04-02T10:33:37.650Z,5.57
2023-04-02T10:36:57.886Z,4.13
2023-04-02T10:40:10.733Z,3.47
2023-04-02T10:43:30.962Z,3.97
2023-04-02T10:46:36.134Z,3.85
2023-04-02T10:49:44.072Z,3.58
2023-04-02T10:52:53.047Z,4.27
2023-04-02T10:56:03.458Z,3.22
2023-04-02T10:59:15.706Z,4.63
2023-04-02T11:02:36.149Z,3.53
2023-04-02T11:05:50.940Z,2.92
2023-04-02T11:09:01.272Z,3.00
2023-04-02T11:12:06.373Z,3.53
2023-04-02T11:15:19.198Z,2.80
2023-04-02T11:18:29.782Z,2.50
2023-04-02T11:21:55.032Z,3.30
2023-04-02T11:25:01.443Z,2.53
2023-04-02T11:28:20.870Z,2.40
2023-04-02T11:31:23.309Z,3.03
2023-04-02T11:34:43.963Z,4.15
2023-04-02T11:37:46.519Z,2.97
2023-04-02T11:40:53.073Z,2.33
2023-04-02T11:44:01.420Z,2.17
2023-04-02T11:47:25.183Z,2.58
2023-04-02T11:50:31.996Z,3.97
2023-04-02T11:53:35.015Z,4.97
2023-04-02T11:56:53.056Z,3.23
2023-04-02T12:00:11.190Z,2.38
2023-04-02T12:03:36.109Z,2.83
2023-04-02T12:06:39.936Z,1.92
2023-04-02T12:09:49.758Z,2.20
2023-04-02T12:12:52.144Z,1.87
2023-04-02T12:15:59.582Z,1.88
2023-04-02T12:19:07.994Z,3.30
2023-04-02T12:22:20.053Z,3.00
2023-04-02T12:25:46.566Z,2.42
2023-04-02T12:28:48.788Z,4.10
2023-04-02T12:31:51.257Z,2.67
2023-04-02T12:34:55.818Z,2.42
2023-04-02T12:37:58.181Z,1.90
2023-04-02T12:41:16.189Z,4.32
2023-04-02T12:44:21.985Z,2.17
2023-04-02T12:47:25.102Z,2.40
2023-04-02T12:50:27.445Z,2.17
2023-04-02T12:53:36.689Z,2.35
2023-04-02T12:56:39.020Z,2.17
2023-04-02T12:59:42.918Z,2.53
2023-04-02T13:02:47.386Z,2.38
2023-04-02T13:05:52.824Z,2.15
2023-04-02T13:08:55.571Z,3.35
2023-04-02T13:11:58.432Z,1.90
2023-04-02T13:15:03.879Z,2.57
2023-04-02T13:18:20.774Z,2.60
2023-04-02T13:21:28.429Z,3.63
2023-04-02T13:24:33.188Z,2.90
2023-04-02T13:27:35.798Z,1.65
2023-04-02T13:30:38.219Z,1.23
2023-04-02T13:33:40.554Z,1.20
2023-04-02T13:36:42.876Z,5.63
2023-04-02T13:39:45.114Z,1.13
2023-04-02T13:42:49.899Z,1.27
2023-04-02T13:45:54.436Z,1.40
2023-04-02T13:48:57.694Z,1.33
2023-04-02T13:52:04.371Z,2.65
2023-04-02T13:55:06.965Z,1.33
2023-04-02T13:58:10.737Z,1.92
2023-04-02T14:01:14.414Z,1.43
2023-04-02T14:04:30.073Z,1.80
2023-04-02T14:08:06.654Z,1.30
2023-04-02T14:11:18.082Z,1.20
2023-04-02T14:14:55.646Z,2.67
2023-04-02T14:18:07.147Z,2.13
2023-04-02T14:21:26.686Z,1.48
2023-04-02T14:24:37.638Z,1.60
2023-04-02T14:27:40.399Z,1.90
2023-04-02T14:30:57.115Z,1.60
2023-04-02T14:34:21.072Z,2.50
2023-04-02T14:37:36.936Z,4.15
2023-04-02T14:40:46.307Z,4.63
2023-04-02T14:43:55.690Z,2.28
2023-04-02T14:47:19.108Z,1.73
2023-04-02T14:50:39.132Z,1.53
2023-04-02T14:53:58.798Z,1.90
2023-04-02T14:57:17.000Z,2.15
2023-04-02T15:00:31.801Z,2.38
2023-04-02T15:03:43.398Z,2.72
2023-04-02T15:06:52.515Z,2.77
2023-04-02T15:10:19.631Z,3.58
2023-04-02T15:13:30.648Z,5.32
2023-04-02T15:16:36.538Z,4.45
2023-04-02T15:19:39.711Z,2.03
2023-04-02T15:23:07.295Z,4.10
2023-04-02T15:26:21.734Z,4.80
2023-04-02T15:30:01.944Z,6.25
2023-04-02T15:33:44.278Z,3.65
2023-04-02T15:37:05.040Z,3.60
2023-04-02T15:40:16.056Z,5.07
2023-04-02T15:43:24.696Z,3.67
2023-04-02T15:46:51.295Z,4.22
2023-04-02T15:50:21.982Z,4.78
2023-04-02T15:53:48.223Z,4.68
2023-04-02T15:57:11.307Z,2.70
2023-04-02T16:00:27.820Z,4.57
2023-04-02T16:03:44.079Z,3.30
2023-04-02T16:07:34.194Z,2.60
2023-04-02T16:10:42.586Z,4.47
2023-04-02T16:13:45.685Z,5.23
2023-04-02T16:16:50.493Z,4.07
2023-04-02T16:20:17.565Z,6.53
2023-04-02T16:23:32.299Z,3.97
2023-04-02T16:27:04.936Z,4.40
2023-04-02T16:30:28.919Z,3.60
2023-04-02T16:33:46.403Z,3.15
2023-04-02T16:36:54.817Z,3.60
2023-04-02T16:40:24.481Z,4.30
2023-04-02T16:43:45.670Z,4.28
2023-04-02T16:47:12.574Z,4.37
2023-04-02T16:50:44.745Z,6.10
2023-04-02T16:54:36.729Z,3.83
2023-04-02T16:58:17.797Z,4.78
2023-04-02T17:01:20.042Z,4.63
2023-04-02T17:04:46.560Z,3.70
2023-04-02T17:08:04.932Z,4.05
2023-04-02T17:11:10.898Z,3.28
2023-04-02T17:15:07.381Z,4.80
2023-04-02T17:18:20.055Z,4.63
2023-04-02T17:21:27.375Z,2.07
2023-04-02T17:24:35.936Z,1.38
2023-04-02T17:27:43.620Z,1.88
2023-04-02T17:30:49.545Z,2.17
2023-04-02T17:33:51.820Z,1.75
2023-04-02T17:36:54.023Z,1.40
2023-04-02T17:40:15.076Z,1.50
2023-04-02T17:43:28.983Z,2.60
2023-04-02T17:46:52.800Z,1.88
2023-04-02T17:50:03.874Z,1.63
2023-04-02T17:53:20.628Z,2.80
2023-04-02T17:57:06.389Z,2.80
2023-04-02T18:00:45.738Z,2.95
2023-04-02T18:04:29.897Z,3.65
2023-04-02T18:07:50.229Z,3.67
2023-04-02T18:11:10.848Z,4.17
2023-04-02T18:14:31.973Z,3.70
2023-04-02T18:17:39.826Z,4.10
2023-04-02T18:21:06.476Z,7.10
2023-04-02T18:24:21.284Z,4.55
2023-04-02T18:27:44.621Z,5.03
2023-04-02T18:31:40.740Z,6.85
2023-04-02T18:34:51.859Z,4.97
2023-04-02T18:38:00.926Z,5.45
2023-04-02T18:41:21.863Z,5.63
2023-04-02T18:44:31.537Z,6.50
2023-04-02T18:48:06.951Z,4.57
2023-04-02T18:51:17.526Z,6.03
2023-04-02T18:54:29.820Z,5.80
2023-04-02T18:57:36.086Z,6.45
2023-04-02T19:00:45.021Z,10.40
2023-04-02T19:03:56.833Z,6.93
2023-04-02T19:07:13.017Z,6.10
2023-04-02T19:10:31.084Z,5.20
2023-04-02T19:13:33.348Z,5.65
2023-04-02T19:16:43.660Z,5.87
2023-04-02T19:20:22.924Z,8.50
2023-04-02T19:23:56.123Z,5.10
2023-04-02T19:27:32.797Z,5.10
2023-04-02T19:31:12.940Z,5.07
2023-04-02T19:34:33.967Z,4.33
2023-04-02T19:37:51.588Z,5.95
2023-04-02T19:40:59.853Z,6.00
2023-04-02T19:44:02.255Z,6.22
2023-04-02T19:47:05.190Z,6.20
2023-04-02T19:50:08.245Z,5.37
2023-04-02T19:53:11.153Z,5.35
2023-04-02T19:56:13.508Z,5.13
2023-04-02T19:59:18.408Z,6.72
2023-04-02T20:02:21.420Z,5.30
2023-04-02T20:05:23.678Z,5.37
2023-04-02T20:08:26.978Z,6.03
2023-04-02T20:11:29.715Z,6.03
2023-04-02T20:14:32.422Z,6.00
2023-04-02T20:17:34.756Z,5.65
2023-04-02T20:20:38.050Z,5.40
2023-04-02T20:23:41.181Z,5.07
2023-04-02T20:26:43.469Z,5.22
2023-04-02T20:29:46.193Z,5.85
2023-04-02T20:32:48.687Z,5.03
2023-04-02T20:35:52.397Z,5.63
2023-04-02T20:38:54.922Z,5.75
2023-04-02T20:42:01.214Z,5.50
2023-04-02T20:45:05.237Z,5.97
2023-04-02T20:48:07.550Z,8.52
2023-04-02T20:51:13.041Z,5.87
2023-04-02T20:54:15.486Z,5.85
2023-04-02T20:57:19.711Z,4.95
2023-04-02T21:00:22.624Z,5.90
2023-04-02T21:03:24.857Z,6.00
2023-04-02T21:06:33.265Z,5.67
2023-04-02T21:09:35.771Z,5.47
2023-04-02T21:12:37.969Z,4.93
2023-04-02T21:15:43.308Z,5.57
2023-04-02T21:18:46.977Z,5.53
2023-04-02T21:21:49.266Z,4.90
2023-04-02T21:24:51.534Z,6.00
2023-04-02T21:27:53.842Z,5.45
2023-04-02T21:31:06.312Z,5.45
2023-04-02T21:34:12.347Z,5.53
2023-04-02T21:37:14.627Z,5.50
2023-04-02T21:40:16.960Z,7.40
2023-04-02T21:43:19.490Z,5.50
2023-04-02T21:46:24.709Z,5.60
2023-04-02T21:49:28.007Z,4.85
2023-04-02T21:52:30.298Z,5.63
2023-04-02T21:55:32.489Z,4.95
2023-04-02T21:58:35.034Z,5.20
2023-04-02T22:01:40.207Z,5.65
2023-04-02T22:04:42.564Z,4.70
2023-04-02T22:07:44.810Z,5.10
2023-04-02T22:10:47.054Z,4.65
2023-04-02T22:13:49.884Z,4.78
2023-04-02T22:16:52.378Z,4.35
2023-04-02T22:19:54.729Z,3.90
2023-04-02T22:22:56.989Z,6.57
2023-04-02T22:26:00.892Z,4.82
2023-04-02T22:29:04.506Z,4.93
2023-04-02T22:32:06.727Z,5.20
2023-04-02T22:35:09.284Z,4.65
2023-04-02T22:38:11.593Z,4.50
2023-04-02T22:41:16.279Z,6.63
2023-04-02T22:44:18.526Z,5.30
2023-04-02T22:47:21.066Z,5.65
2023-04-02T22:50:23.463Z,5.18
2023-04-02T22:53:26.410Z,5.87
2023-04-02T22:56:32.134Z,6.15
2023-04-02T22:59:34.828Z,5.97
2023-04-02T23:02:39.996Z,5.55
2023-04-02T23:05:42.685Z,5.38
2023-04-02T23:08:45.819Z,6.97
2023-04-02T23:11:48.093Z,5.75
2023-04-02T23:14:50.406Z,5.93
2023-04-02T23:17:52.775Z,7.07
2023-04-02T23:20:55.685Z,5.90
2023-04-02T23:24:01.270Z,6.60
2023-04-02T23:27:03.656Z,6.18
2023-04-02T23:30:08.809Z,5.93
2023-04-02T23:33:11.059Z,6.18
2023-04-02T23:36:26.900Z,6.85
2023-04-02T23:39:29.690Z,5.50
2023-04-02T23:42:31.874Z,6.88
2023-04-02T23:45:34.119Z,7.50
2023-04-02T23:48:36.364Z,6.30
2023-04-02T23:51:38.788Z,6.65
2023-04-02T23:54:41.128Z,7.90
2023-04-02T23:57:43.425Z,7.22
